Time;durP1;ratioP1;P1;durP2;ratioP2;P2;SDS_P1;SDS_P2;PMS_P1;PMS_P2;Temp;Humidity;BMP_temperature;BMP_pressure;BME280_temperature;BME280_humidity;BME280_pressure;Samples;Min_cycle;Max_cycle;Signal;HPM_P1;HPM_P2
2022/12/03 05:22:49;;;;;;;12.57;5.15;;;;;;;2.61;100.00;100369.97;5120129;27;20685;-66
2022/12/03 05:25:15;;;;;;;12.43;6.32;;;;;;;2.66;100.00;100375.69;5089129;28;20036;-66
2022/12/03 05:27:40;;;;;;;16.20;6.35;;;;;;;2.67;100.00;100372.09;5089104;28;20094;-66
2022/12/03 05:30:06;;;;;;;12.43;6.18;;;;;;;2.72;100.00;100377.84;5088897;28;20044;-66
2022/12/03 05:32:32;;;;;;;13.95;6.22;;;;;;;2.76;100.00;100365.31;5088781;28;20071;-67
2022/12/03 05:34:57;;;;;;;11.85;6.22;;;;;;;2.69;100.00;100364.94;5089527;28;20068;-66
2022/12/03 05:37:23;;;;;;;10.98;5.93;;;;;;;2.69;100.00;100360.53;5088747;28;20051;-67
2022/12/03 05:39:48;;;;;;;14.20;6.22;;;;;;;2.61;100.00;100352.41;5088774;28;20511;-66
2022/12/03 05:44:57;;;;;;;12.10;6.10;;;;;;;2.71;100.00;100353.34;5088746;28;20763;-66
2022/12/03 05:47:22;;;;;;;14.80;5.55;;;;;;;2.67;100.00;100345.78;5070336;28;20097;-67
2022/12/03 05:49:48;;;;;;;14.05;6.50;;;;;;;2.62;100.00;100353.22;5088527;28;20028;-67
2022/12/03 05:52:13;;;;;;;17.33;6.57;;;;;;;2.56;100.00;100354.53;5088296;28;20123;-67
2022/12/03 05:54:38;;;;;;;13.63;6.85;;;;;;;2.69;100.00;100359.69;5088529;28;20044;-67
2022/12/03 05:57:04;;;;;;;20.77;7.15;;;;;;;2.72;100.00;100367.31;5088254;28;20040;-66
2022/12/03 05:59:29;;;;;;;17.13;6.53;;;;;;;2.67;100.00;100372.97;5088331;28;20062;-66
2022/12/03 06:01:55;;;;;;;12.65;5.50;;;;;;;2.63;100.00;100363.63;5087865;28;20040;-66
2022/12/03 06:04:20;;;;;;;15.13;6.25;;;;;;;2.57;100.00;100366.72;5088351;28;20036;-67
2022/12/03 06:06:45;;;;;;;15.10;5.55;;;;;;;2.53;100.00;100365.28;5088156;28;20473;-66
2022/12/03 06:09:11;;;;;;;15.27;7.25;;;;;;;2.57;100.00;100371.16;5088270;28;20036;-66
2022/12/03 06:11:36;;;;;;;19.90;6.80;;;;;;;2.50;100.00;100364.72;5087720;28;20040;-66
2022/12/03 06:14:02;;;;;;;14.07;6.13;;;;;;;2.52;100.00;100366.25;5088296;28;20454;-66
2022/12/03 06:16:28;;;;;;;14.75;6.32;;;;;;;2.50;100.00;100364.72;5088135;28;20044;-67
2022/12/03 06:18:54;;;;;;;19.23;6.80;;;;;;;2.50;100.00;100365.53;5088110;28;20054;-67
2022/12/03 06:21:20;;;;;;;17.88;7.35;;;;;;;2.48;100.00;100364.84;5087537;28;20119;-66
2022/12/03 06:23:45;;;;;;;16.08;5.97;;;;;;;2.51;100.00;100361.13;5087990;28;20040;-66
2022/12/03 06:26:11;;;;;;;19.42;7.00;;;;;;;2.47;100.00;100362.28;5087848;28;20032;-66
2022/12/03 06:28:37;;;;;;;14.95;7.07;;;;;;;2.43;100.00;100356.44;5087795;28;20036;-66
2022/12/03 06:31:02;;;;;;;11.02;5.38;;;;;;;2.38;100.00;100362.06;5087602;28;20097;-66
2022/12/03 06:33:28;;;;;;;12.93;6.75;;;;;;;2.40;100.00;100365.41;5077096;28;20104;-67
2022/12/03 06:35:53;;;;;;;18.02;6.75;;;;;;;2.35;100.00;100367.56;5074123;28;20043;-67
2022/12/03 06:38:19;;;;;;;19.35;7.63;;;;;;;2.20;100.00;100368.72;5074249;28;20032;-66
2022/12/03 06:40:44;;;;;;;18.80;7.85;;;;;;;2.21;100.00;100375.63;5073922;28;20363;-66
2022/12/03 06:43:09;;;;;;;16.63;6.68;;;;;;;2.20;100.00;100371.34;5074289;28;20039;-66
2022/12/03 06:45:35;;;;;;;14.32;7.78;;;;;;;2.17;100.00;100374.22;5056191;28;20044;-66
2022/12/03 06:48:00;;;;;;;15.20;6.55;;;;;;;2.13;100.00;100368.34;5074072;28;20036;-66
2022/12/03 06:50:25;;;;;;;13.38;5.43;;;;;;;2.10;100.00;100378.25;5073729;28;20116;-66
2022/12/03 06:52:51;;;;;;;19.40;7.32;;;;;;;2.02;100.00;100378.84;5073873;28;20067;-66
2022/12/03 06:55:16;;;;;;;21.25;7.22;;;;;;;2.02;100.00;100376.22;5073814;28;20041;-67
2022/12/03 06:57:41;;;;;;;15.25;6.85;;;;;;;1.99;100.00;100370.34;5072589;28;20119;-65
2022/12/03 07:00:08;;;;;;;18.75;6.95;;;;;;;2.00;100.00;100377.28;5073719;28;20481;-66
2022/12/03 07:02:33;;;;;;;19.48;7.43;;;;;;;1.92;100.00;100375.22;5073637;28;20047;-66
2022/12/03 07:04:59;;;;;;;20.10;7.72;;;;;;;1.99;100.00;100375.59;5072461;28;20040;-66
2022/12/03 07:07:24;;;;;;;17.67;6.75;;;;;;;1.91;100.00;100381.44;5072427;28;20070;-67
2022/12/03 07:09:50;;;;;;;21.63;8.00;;;;;;;1.93;100.00;100382.16;5073664;28;20392;-66
2022/12/03 07:12:15;;;;;;;17.55;6.93;;;;;;;1.93;100.00;100381.31;5073239;28;20036;-66
2022/12/03 07:14:40;;;;;;;21.33;6.88;;;;;;;1.92;100.00;100379.63;5073349;28;20493;-66
2022/12/03 07:17:06;;;;;;;18.85;7.50;;;;;;;1.87;100.00;100387.84;5073309;28;20039;-66
2022/12/03 07:19:31;;;;;;;15.52;6.88;;;;;;;1.89;100.00;100381.56;5073395;28;20510;-66
2022/12/03 07:21:57;;;;;;;17.42;7.18;;;;;;;1.88;100.00;100389.53;5073036;28;20048;-66
2022/12/03 07:24:22;;;;;;;15.32;6.57;;;;;;;1.87;100.00;100393.13;5073383;28;20049;-66
2022/12/03 07:26:47;;;;;;;16.95;7.32;;;;;;;1.86;100.00;100383.56;5071967;28;20105;-66
2022/12/03 07:29:13;;;;;;;15.73;6.65;;;;;;;1.89;100.00;100386.81;5072233;28;20044;-67
2022/12/03 07:31:38;;;;;;;19.85;8.52;;;;;;;1.91;100.00;100384.06;5072926;28;20508;-67
2022/12/03 07:34:04;;;;;;;20.73;7.20;;;;;;;1.93;100.00;100387.41;5055284;28;20074;-66
2022/12/03 07:36:29;;;;;;;20.00;7.40;;;;;;;1.93;100.00;100381.31;5073188;28;20040;-67
2022/12/03 07:38:54;;;;;;;17.35;6.60;;;;;;;1.90;100.00;100380.59;5073042;28;20044;-66
2022/12/03 07:41:20;;;;;;;20.08;8.25;;;;;;;1.84;100.00;100383.69;5072637;28;20032;-66
2022/12/03 07:43:45;;;;;;;18.90;8.40;;;;;;;1.87;100.00;100380.81;5072277;28;20090;-67
2022/12/03 07:46:11;;;;;;;21.13;8.05;;;;;;;1.86;100.00;100380.94;5072436;28;20040;-66
2022/12/03 07:48:36;;;;;;;20.30;7.30;;;;;;;1.84;100.00;100378.44;5072867;28;20059;-67
2022/12/03 07:51:02;;;;;;;27.73;8.70;;;;;;;1.79;100.00;100377.09;5072531;28;20044;-66
2022/12/03 07:53:27;;;;;;;16.13;6.88;;;;;;;1.88;100.00;100379.84;5072793;28;20040;-67
2022/12/03 07:55:52;;;;;;;21.52;7.82;;;;;;;1.85;100.00;100390.59;5072702;28;20125;-67
2022/12/03 07:58:18;;;;;;;21.95;7.10;;;;;;;1.82;100.00;100388.19;5072757;28;20044;-67
2022/12/03 08:00:43;;;;;;;21.20;7.38;;;;;;;1.89;100.00;100401.72;5072448;28;20485;-67
2022/12/03 08:03:09;;;;;;;20.08;7.97;;;;;;;1.96;100.00;100402.13;5072603;28;20105;-67
2022/12/03 08:05:34;;;;;;;25.33;8.40;;;;;;;1.90;100.00;100393.72;5071357;28;20045;-67
2022/12/03 08:08:00;;;;;;;13.90;6.22;;;;;;;1.99;100.00;100407.13;5072526;28;20037;-62
2022/12/03 08:10:25;;;;;;;20.75;7.50;;;;;;;2.04;100.00;100407.63;5071947;28;20043;-65
2022/12/03 08:12:52;;;;;;;17.38;7.38;;;;;;;2.05;100.00;100394.38;5072640;28;20404;-66
2022/12/03 08:15:23;;;;;;;25.17;7.40;;;;;;;2.05;100.00;100393.53;5072276;28;20131;-67
2022/12/03 08:17:59;;;;;;;19.45;8.68;;;;;;;2.16;100.00;100388.31;5072405;28;20094;-66
2022/12/03 08:20:31;;;;;;;19.83;7.82;;;;;;;2.14;100.00;100384.94;5071770;28;20042;-67
2022/12/03 08:22:57;;;;;;;18.88;7.10;;;;;;;2.20;100.00;100388.91;5072050;28;20086;-66
2022/12/03 08:25:29;;;;;;;18.00;7.85;;;;;;;2.19;100.00;100380.19;5071970;28;20028;-67
2022/12/03 08:27:59;;;;;;;23.63;7.70;;;;;;;2.21;100.00;100383.53;5072287;28;20115;-66
2022/12/03 08:30:25;;;;;;;25.00;7.63;;;;;;;2.26;100.00;100375.31;5071937;28;20043;-65
2022/12/03 08:32:50;;;;;;;20.60;8.25;;;;;;;2.33;100.00;100373.88;5072060;28;20033;-60
2022/12/03 08:35:24;;;;;;;20.52;8.60;;;;;;;2.37;100.00;100376.16;5071733;28;20500;-59
2022/12/03 08:37:58;;;;;;;16.40;6.15;;;;;;;2.42;100.00;100373.19;5138748;22;20069;-69
2022/12/03 08:40:42;;;;;;;18.55;8.48;;;;;;;2.39;100.00;100378.66;5045748;28;20130;-67
2022/12/03 08:43:17;;;;;;;15.20;6.60;;;;;;;2.44;100.00;100372.09;5053375;28;20056;-68
2022/12/03 08:45:43;;;;;;;15.90;7.63;;;;;;;2.42;100.00;100371.41;5051234;28;20181;-66
2022/12/03 08:48:31;;;;;;;19.98;7.35;;;;;;;2.40;100.00;100360.13;5051699;28;20040;-67
2022/12/03 08:51:00;;;;;;;20.02;8.57;;;;;;;2.44;100.00;100355.50;5050440;28;20072;-67
2022/12/03 08:53:36;;;;;;;24.13;8.20;;;;;;;2.48;100.00;100362.19;5051581;28;20040;-68
2022/12/03 08:56:15;;;;;;;19.48;7.80;;;;;;;2.53;100.00;100356.56;5051052;28;20105;-67
2022/12/03 08:58:46;;;;;;;15.55;7.88;;;;;;;2.56;100.00;100364.22;5051445;28;20555;-64
2022/12/03 09:01:11;;;;;;;19.95;8.00;;;;;;;2.56;100.00;100366.88;5050237;28;20112;-66
2022/12/03 09:03:43;;;;;;;23.45;8.30;;;;;;;2.58;100.00;100367.56;5051224;28;20187;-64
2022/12/03 09:06:08;;;;;;;17.38;6.60;;;;;;;2.43;100.00;100369.59;5051227;28;20036;-66
2022/12/03 09:08:34;;;;;;;29.25;8.80;;;;;;;2.52;100.00;100378.56;5049838;28;20055;-66
2022/12/03 09:11:00;;;;;;;20.60;7.80;;;;;;;2.59;100.00;100379.75;5050215;28;20503;-65
2022/12/03 09:13:27;;;;;;;;;;;;;;;2.67;100.00;100374.72;5050532;28;20033;-66
2022/12/03 09:15:52;;;;;;;13.77;6.25;;;;;;;2.72;100.00;100370.78;5051096;28;20304;-67
2022/12/03 09:18:18;;;;;;;23.25;8.05;;;;;;;2.75;100.00;100364.47;5051078;28;20037;-65
2022/12/03 09:20:43;;;;;;;20.60;8.52;;;;;;;2.76;100.00;100365.31;5049816;28;20025;-68
2022/12/03 09:23:09;;;;;;;24.00;7.95;;;;;;;2.78;100.00;100369.47;5050918;28;20521;-66
2022/12/03 09:25:34;;;;;;;22.38;7.75;;;;;;;2.88;100.00;100364.34;5050405;28;20083;-67
2022/12/03 09:27:59;;;;;;;24.48;9.18;;;;;;;2.92;100.00;100366.59;5049919;28;20490;-68
2022/12/03 09:30:25;;;;;;;26.67;9.48;;;;;;;2.88;100.00;100366.97;5048836;28;20128;-65
2022/12/03 09:32:50;;;;;;;27.10;9.57;;;;;;;2.96;100.00;100370.66;5051510;28;20033;-66
2022/12/03 09:35:16;;;;;;;20.40;8.27;;;;;;;3.01;100.00;100372.09;5051101;28;20036;-67
2022/12/03 09:37:41;;;;;;;27.15;8.52;;;;;;;2.94;100.00;100366.50;5051220;28;20037;-66
2022/12/03 09:40:08;;;;;;;21.52;9.32;;;;;;;2.92;100.00;100365.75;5050858;28;20101;-66
2022/12/03 09:42:34;;;;;;;22.48;8.95;;;;;;;2.97;100.00;100367.06;5050808;28;20029;-67
2022/12/03 09:45:02;;;;;;;26.45;9.05;;;;;;;3.02;100.00;100360.63;5050033;28;20612;-68
2022/12/03 09:47:29;;;;;;;20.13;8.88;;;;;;;2.92;100.00;100374.47;5051038;28;20521;-66
2022/12/03 09:49:56;;;;;;;20.50;8.32;;;;;;;3.01;100.00;100372.09;5049662;28;20428;-67
2022/12/03 09:52:27;;;;;;;20.20;7.95;;;;;;;3.06;100.00;100367.28;5050721;28;20048;-67
2022/12/03 09:54:53;;;;;;;22.20;8.88;;;;;;;3.02;100.00;100365.88;5051198;28;20037;-68
2022/12/03 09:57:18;;;;;;;17.58;7.90;;;;;;;3.12;100.00;100361.53;5050932;28;20109;-65
2022/12/03 09:59:45;;;;;;;20.13;7.40;;;;;;;3.03;100.00;100349.13;5049787;28;20045;-68
2022/12/03 10:02:20;;;;;;;16.85;7.50;;;;;;;3.12;100.00;100356.28;5050625;28;20040;-67
2022/12/03 10:04:45;;;;;;;19.17;8.00;;;;;;;3.13;100.00;100350.03;5050965;28;20048;-67
2022/12/03 10:07:11;;;;;;;25.08;8.52;;;;;;;3.20;100.00;100346.00;5049815;28;20037;-67
2022/12/03 10:09:36;;;;;;;18.02;9.00;;;;;;;3.25;100.00;100338.53;5054993;28;20067;-67
2022/12/03 10:12:02;;;;;;;23.13;9.18;;;;;;;3.23;100.00;100328.13;5054312;28;20049;-66
2022/12/03 10:14:27;;;;;;;20.70;9.10;;;;;;;3.38;100.00;100330.47;5054734;28;20036;-67
2022/12/03 10:16:53;;;;;;;20.40;9.52;;;;;;;3.43;100.00;100323.03;5055505;28;20512;-66
2022/12/03 10:19:23;;;;;;;21.98;9.45;;;;;;;3.47;100.00;100325.31;5055013;28;20628;-66
2022/12/03 10:21:49;;;;;;;24.55;8.55;;;;;;;3.40;100.00;100323.31;5054136;28;20124;-66
2022/12/03 10:24:22;;;;;;;16.70;7.78;;;;;;;3.53;100.00;100326.59;5053023;28;20192;-67
2022/12/03 10:26:50;;;;;;;19.50;9.60;;;;;;;3.54;100.00;100320.38;5054203;28;20041;-67
2022/12/03 10:29:27;;;;;;;24.30;9.57;;;;;;;3.61;100.00;100326.81;5019453;28;20070;-64
2022/12/03 10:31:56;;;;;;;23.33;8.67;;;;;;;3.70;100.00;100323.41;5054351;28;20219;-65
2022/12/03 10:34:25;;;;;;;17.88;7.82;;;;;;;3.70;100.00;100326.03;5054386;28;20037;-63
2022/12/03 10:37:15;;;;;;;25.90;8.90;;;;;;;3.72;100.00;100313.59;5054209;28;20489;-66
2022/12/03 10:39:58;;;;;;;18.58;6.95;;;;;;;3.83;100.00;100319.75;5048914;28;20106;-66
2022/12/03 10:42:29;;;;;;;21.00;8.95;;;;;;;3.84;100.00;100316.97;5054000;28;20036;-66
2022/12/03 10:45:17;;;;;;;20.60;8.05;;;;;;;3.89;100.00;100319.22;5054034;28;20408;-65
2022/12/03 10:48:00;;;;;;;20.17;7.28;;;;;;;3.95;100.00;100310.81;5053920;28;20043;-66
2022/12/03 10:50:27;;;;;;;20.23;7.10;;;;;;;3.95;100.00;100308.19;5053696;28;20064;-66
2022/12/03 10:52:52;;;;;;;23.02;8.73;;;;;;;4.00;100.00;100312.09;5054161;28;20108;-66
2022/12/03 10:55:18;;;;;;;18.65;7.93;;;;;;;4.03;100.00;100306.56;5053877;28;20043;-65
2022/12/03 10:57:44;;;;;;;20.60;8.48;;;;;;;3.96;100.00;100294.88;5052803;28;20113;-66
2022/12/03 11:00:17;;;;;;;17.85;8.70;;;;;;;4.03;100.00;100292.53;5053736;28;20094;-67
2022/12/03 11:02:43;;;;;;;18.02;8.35;;;;;;;4.01;100.00;100290.03;5052402;28;20055;-66
2022/12/03 11:05:19;;;;;;;23.17;8.70;;;;;;;4.16;100.00;100281.78;5053726;28;20105;-66
2022/12/03 11:07:45;;;;;;;22.77;8.85;;;;;;;4.17;100.00;100280.81;5053731;28;20048;-65
2022/12/03 11:10:15;;;;;;;16.65;7.43;;;;;;;4.14;100.00;100274.03;5051497;28;20041;-66
2022/12/03 11:12:41;;;;;;;18.45;8.60;;;;;;;4.04;100.00;100263.44;5053144;28;20069;-66
2022/12/03 11:15:15;;;;;;;16.85;7.28;;;;;;;4.14;100.00;100262.66;5053045;28;20071;-66
2022/12/03 11:17:46;;;;;;;23.20;8.43;;;;;;;4.16;100.00;100264.16;5051952;28;20051;-66
2022/12/03 11:20:24;;;;;;;20.85;8.40;;;;;;;4.19;100.00;100260.44;5047399;28;20541;-65
2022/12/03 11:22:54;;;;;;;30.45;10.30;;;;;;;4.14;100.00;100254.72;5053107;28;20469;-66
2022/12/03 11:25:25;;;;;;;18.80;7.72;;;;;;;4.23;100.00;100267.13;5052780;28;20035;-66
2022/12/03 11:28:09;;;;;;;13.38;6.88;;;;;;;4.25;100.00;100262.56;5053097;28;20131;-66
2022/12/03 11:30:50;;;;;;;26.13;8.30;;;;;;;4.32;100.00;100254.00;5051246;28;20375;-66
2022/12/03 11:33:32;;;;;;;19.75;8.48;;;;;;;4.34;100.00;100245.94;5052994;28;20147;-66
2022/12/03 11:36:04;;;;;;;20.52;7.35;;;;;;;4.40;100.00;100248.03;5052896;28;20084;-66
2022/12/03 11:38:36;;;;;;;18.25;8.40;;;;;;;4.39;100.00;100248.19;5052889;28;20079;-65
2022/12/03 11:41:13;;;;;;;17.52;9.15;;;;;;;4.41;100.00;100254.16;5052622;28;20509;-66
2022/12/03 11:43:51;;;;;;;16.58;7.95;;;;;;;4.44;100.00;100252.09;5052995;28;20041;-67
2022/12/03 11:46:25;;;;;;;18.00;8.05;;;;;;;4.54;100.00;100252.94;5052422;28;20037;-66
2022/12/03 11:48:52;;;;;;;24.83;10.27;;;;;;;4.44;100.00;100243.34;5052786;28;20071;-67
2022/12/03 11:51:23;;;;;;;19.88;8.73;;;;;;;4.49;100.00;100238.47;5051120;28;20060;-66
2022/12/03 11:53:51;;;;;;;21.60;9.05;;;;;;;4.43;100.00;100231.09;5052697;28;20098;-66
2022/12/03 11:56:20;;;;;;;20.08;8.18;;;;;;;4.50;100.00;100225.19;5052681;28;20037;-67
2022/12/03 11:58:46;;;;;;;17.50;7.57;;;;;;;4.53;100.00;100232.81;5052574;28;20036;-66
2022/12/03 12:01:13;;;;;;;19.00;8.10;;;;;;;4.53;100.00;100222.25;5052260;28;20044;-66
2022/12/03 12:03:45;;;;;;;20.27;8.35;;;;;;;4.44;100.00;100216.97;5052758;28;20053;-69
2022/12/03 12:06:13;;;;;;;21.15;7.97;;;;;;;4.48;100.00;100221.81;5052708;28;20132;-66
2022/12/03 12:08:59;;;;;;;20.27;8.35;;;;;;;4.53;100.00;100219.63;5052475;28;20148;-66
2022/12/03 12:11:33;;;;;;;19.75;7.10;;;;;;;4.50;100.00;100204.06;5051829;28;20391;-66
2022/12/03 12:14:03;;;;;;;18.65;7.50;;;;;;;4.51;100.00;100200.47;5052503;28;20037;-67
2022/12/03 12:16:40;;;;;;;20.42;8.38;;;;;;;4.49;100.00;100196.28;5052299;28;20405;-67
2022/12/03 12:19:30;;;;;;;25.75;8.93;;;;;;;4.51;100.00;100187.28;5052370;28;20043;-67
2022/12/03 12:22:26;;;;;;;21.38;7.80;;;;;;;4.55;100.00;100193.94;5051895;28;20033;-67
2022/12/03 12:24:53;;;;;;;17.27;7.45;;;;;;;4.49;100.00;100194.47;5052070;28;20036;-67
2022/12/03 12:27:28;;;;;;;17.00;7.15;;;;;;;4.53;100.00;100193.22;5052134;28;20041;-67
2022/12/03 12:29:59;;;;;;;18.77;7.80;;;;;;;4.50;100.00;100190.88;5051761;28;20028;-68
2022/12/03 12:33:06;;;;;;;15.15;6.95;;;;;;;4.55;100.00;100191.28;5051704;28;20036;-67
2022/12/03 12:35:32;;;;;;;18.85;7.60;;;;;;;4.53;100.00;100187.97;5040408;28;20041;-68
2022/12/03 12:38:07;;;;;;;18.50;7.35;;;;;;;4.54;100.00;100180.88;5052012;28;20033;-66
2022/12/03 12:40:41;;;;;;;14.32;5.68;;;;;;;4.54;100.00;100189.63;5051427;28;20498;-67
2022/12/03 12:43:09;;;;;;;17.92;7.47;;;;;;;4.57;100.00;100178.81;5051901;28;20405;-67
2022/12/03 12:45:37;;;;;;;17.08;6.68;;;;;;;4.62;100.00;100175.75;5051857;28;20049;-65
2022/12/03 12:48:15;;;;;;;14.63;5.72;;;;;;;4.62;100.00;100178.38;5051846;28;20037;-66
2022/12/03 12:50:43;;;;;;;16.15;7.15;;;;;;;4.57;100.00;100168.25;5051341;28;20043;-66
2022/12/03 12:53:20;;;;;;;;;;;;;;;4.65;100.00;100178.13;5052237;28;20047;-66
2022/12/03 12:55:48;;;;;;;15.18;5.93;;;;;;;4.73;100.00;100188.81;5049381;28;19919;-66
2022/12/03 12:58:18;;;;;;;16.38;7.35;;;;;;;4.67;100.00;100185.91;5049991;28;20029;-65
2022/12/03 13:00:56;;;;;;;17.58;6.70;;;;;;;4.72;100.00;100188.97;5051269;28;20032;-67
2022/12/03 13:03:27;;;;;;;13.13;5.53;;;;;;;4.75;100.00;100180.75;5051610;28;20102;-68
2022/12/03 13:05:55;;;;;;;12.45;5.13;;;;;;;4.72;99.95;100187.16;5050190;28;20040;-67
2022/12/03 13:08:26;;;;;;;12.48;5.72;;;;;;;4.70;99.50;100178.56;5051250;28;20032;-64
2022/12/03 13:10:54;;;;;;;9.40;5.10;;;;;;;4.66;99.22;100171.88;5083285;28;20547;-69
2022/12/03 13:13:41;;;;;;;15.98;5.95;;;;;;;4.67;99.70;100162.97;5051525;28;20520;-67
2022/12/03 13:16:26;;;;;;;14.90;6.65;;;;;;;4.70;99.56;100169.81;5051287;28;20036;-66
2022/12/03 13:19:01;;;;;;;11.00;5.68;;;;;;;4.71;97.48;100164.38;5050969;28;20037;-68
2022/12/03 13:21:37;;;;;;;11.30;4.80;;;;;;;4.62;97.40;100166.03;5050896;28;20033;-68
2022/12/03 13:24:36;;;;;;;14.57;5.43;;;;;;;4.72;96.65;100159.94;5051193;28;20044;-68
2022/12/03 13:27:17;;;;;;;12.88;5.38;;;;;;;4.67;95.84;100160.34;5051029;28;20040;-69
2022/12/03 13:29:50;;;;;;;13.25;5.30;;;;;;;4.66;95.00;100160.50;5083406;28;20033;-68
2022/12/03 13:32:26;;;;;;;18.02;6.78;;;;;;;4.60;94.10;100156.59;5058719;28;20037;-68
2022/12/03 13:34:54;;;;;;;13.18;5.70;;;;;;;4.63;92.53;100151.88;5059719;28;20041;-67
2022/12/03 13:37:23;;;;;;;15.73;5.75;;;;;;;4.65;92.88;100146.47;5070917;28;20028;-68
2022/12/03 13:39:52;;;;;;;14.60;6.47;;;;;;;4.58;93.23;100151.47;5070830;28;20036;-68
2022/12/03 13:45:18;;;;;;;14.98;7.20;;;;;;;4.67;92.95;100151.59;5067418;28;20128;-69
2022/12/03 13:47:45;;;;;;;13.85;6.00;;;;;;;4.61;93.17;100156.44;5057438;28;20124;-67
2022/12/03 13:50:35;;;;;;;18.40;6.53;;;;;;;4.61;93.81;100152.97;5054910;28;20410;-68
2022/12/03 13:53:23;;;;;;;12.05;5.90;;;;;;;4.48;94.71;100152.41;5054423;28;20083;-66
2022/12/03 13:55:56;;;;;;;15.07;6.75;;;;;;;4.45;94.52;100150.88;5052504;28;20549;-65
2022/12/03 13:58:21;;;;;;;17.08;5.97;;;;;;;4.44;94.44;100140.47;5058465;28;20211;-66
2022/12/03 14:00:46;;;;;;;14.60;5.97;;;;;;;4.47;93.54;100150.75;5052466;28;20098;-68
2022/12/03 14:03:14;;;;;;;11.48;5.72;;;;;;;4.50;93.32;100156.59;5053363;28;20029;-67
2022/12/03 14:05:39;;;;;;;16.25;6.05;;;;;;;4.46;94.19;100157.81;5054669;28;20321;-66
2022/12/03 14:08:04;;;;;;;15.63;6.95;;;;;;;4.43;93.86;100154.59;5053545;28;20072;-69
2022/12/03 14:10:31;;;;;;;10.10;5.38;;;;;;;4.35;94.56;100155.28;5053794;28;20029;-67
2022/12/03 14:12:56;;;;;;;10.43;4.75;;;;;;;4.37;94.40;100158.66;5054701;28;20120;-66
2022/12/03 14:15:23;;;;;;;14.68;5.50;;;;;;;4.31;95.12;100161.81;5054574;28;20029;-69
2022/12/03 14:17:49;;;;;;;13.30;6.32;;;;;;;4.18;95.44;100163.88;5057210;28;20102;-68
2022/12/03 14:20:14;;;;;;;15.35;6.07;;;;;;;4.24;95.21;100173.88;5054256;28;20057;-67
2022/12/03 14:22:40;;;;;;;16.75;6.97;;;;;;;4.23;94.93;100175.66;5054704;28;20048;-69
2022/12/03 14:25:06;;;;;;;13.48;6.20;;;;;;;4.19;94.46;100179.53;5054479;28;20040;-69
2022/12/03 14:27:32;;;;;;;17.42;6.35;;;;;;;4.21;94.60;100179.41;5054557;28;20485;-68
2022/12/03 14:29:58;;;;;;;16.35;5.95;;;;;;;4.20;94.30;100185.66;5054490;28;20522;-68
2022/12/03 14:32:24;;;;;;;14.82;6.45;;;;;;;4.16;94.74;100189.50;5052250;28;20124;-69
2022/12/03 14:34:49;;;;;;;18.13;6.63;;;;;;;4.08;95.48;100188.38;5053933;28;20040;-68
2022/12/03 14:37:15;;;;;;;15.20;6.00;;;;;;;4.11;94.75;100195.22;5053935;28;20033;-68
2022/12/03 14:39:40;;;;;;;14.48;5.75;;;;;;;4.08;94.55;100193.66;5053999;28;20086;-67
2022/12/03 14:42:15;;;;;;;13.25;5.40;;;;;;;3.95;95.75;100185.13;5053690;28;20626;-69
2022/12/03 14:44:45;;;;;;;14.55;5.82;;;;;;;4.02;95.32;100182.81;5053398;28;20051;-68
2022/12/03 14:47:12;;;;;;;16.70;6.10;;;;;;;4.04;96.13;100187.00;5053585;28;20033;-68
2022/12/03 14:49:38;;;;;;;17.10;6.50;;;;;;;4.05;95.80;100193.94;5046380;28;20048;-68
2022/12/03 14:52:04;;;;;;;13.75;6.13;;;;;;;4.02;96.38;100181.00;5053459;28;20030;-66
2022/12/03 14:54:29;;;;;;;18.10;5.75;;;;;;;3.96;96.32;100181.53;5052663;28;20041;-68
2022/12/03 14:56:55;;;;;;;11.45;5.80;;;;;;;3.97;96.77;100183.19;5052705;28;20040;-69
2022/12/03 14:59:21;;;;;;;18.45;6.53;;;;;;;3.99;96.32;100175.19;5052787;28;20037;-69
2022/12/03 15:01:46;;;;;;;10.90;5.43;;;;;;;3.96;96.89;100178.06;5051764;28;20405;-68
2022/12/03 15:04:11;;;;;;;17.38;7.03;;;;;;;3.88;96.61;100173.47;5053767;28;20044;-67
2022/12/03 15:06:37;;;;;;;13.68;6.28;;;;;;;3.95;96.68;100176.41;5052724;28;20437;-68
2022/12/03 15:09:03;;;;;;;12.32;5.60;;;;;;;3.83;96.84;100178.28;5053400;28;20044;-69
2022/12/03 15:11:28;;;;;;;17.15;6.68;;;;;;;3.81;96.77;100177.59;5052154;28;20053;-68
2022/12/03 15:13:54;;;;;;;22.90;7.60;;;;;;;3.88;95.91;100176.09;5052251;28;20090;-67
2022/12/03 15:16:19;;;;;;;23.70;7.20;;;;;;;3.83;97.40;100180.91;5053473;28;20040;-67
2022/12/03 15:18:45;;;;;;;14.60;6.68;;;;;;;3.84;97.38;100177.31;5053403;28;20174;-68
2022/12/03 15:21:10;;;;;;;12.20;5.55;;;;;;;3.77;97.09;100181.44;5053175;28;20460;-69
2022/12/03 15:23:36;;;;;;;21.05;6.15;;;;;;;3.75;97.84;100178.09;5053446;28;20044;-68
2022/12/03 15:26:01;;;;;;;15.32;5.93;;;;;;;3.79;97.68;100176.91;5053419;28;20434;-67
2022/12/03 15:28:27;;;;;;;16.90;7.10;;;;;;;3.78;97.56;100172.56;5053451;28;20116;-67
2022/12/03 15:30:52;;;;;;;16.05;7.07;;;;;;;3.80;97.71;100183.81;5051629;28;20171;-69
2022/12/03 15:33:18;;;;;;;15.80;6.22;;;;;;;3.85;97.40;100186.03;5075881;22;20065;-63
2022/12/03 15:35:44;;;;;;;18.23;6.75;;;;;;;3.78;96.53;100178.69;5052072;28;20032;-63
2022/12/03 15:38:10;;;;;;;15.65;6.40;;;;;;;3.72;95.96;100171.31;5053509;28;20056;-63
2022/12/03 15:40:37;;;;;;;16.38;6.00;;;;;;;3.67;96.44;100178.78;5068311;28;20102;-63
2022/12/03 15:43:03;;;;;;;13.18;6.20;;;;;;;3.62;96.95;100169.59;5053246;28;20060;-64
2022/12/03 15:45:28;;;;;;;17.35;7.63;;;;;;;3.57;97.81;100175.22;5053265;28;20619;-63
2022/12/03 15:47:54;;;;;;;15.13;7.05;;;;;;;3.65;97.56;100174.56;5053146;28;20108;-64
2022/12/03 15:50:19;;;;;;;15.68;7.05;;;;;;;3.65;97.56;100179.84;5052820;28;20433;-65
2022/12/03 15:52:44;;;;;;;22.33;7.22;;;;;;;3.63;97.10;100173.88;5052868;28;20098;-64
2022/12/03 15:55:10;;;;;;;20.67;7.00;;;;;;;3.63;96.88;100176.50;5051769;28;20033;-65
2022/12/03 15:57:35;;;;;;;17.33;6.80;;;;;;;3.56;96.55;100178.00;5053051;28;20025;-64
2022/12/03 16:00:01;;;;;;;20.65;7.03;;;;;;;3.55;96.97;100171.91;5052938;28;20493;-65
2022/12/03 16:02:32;;;;;;;21.38;8.40;;;;;;;3.62;97.78;100182.75;5084821;28;20065;-65
2022/12/03 16:05:08;;;;;;;19.08;7.07;;;;;;;3.58;97.89;100178.69;5052063;28;20051;-65
2022/12/03 16:07:34;;;;;;;24.08;7.70;;;;;;;3.61;96.78;100178.47;5052928;28;20048;-65
2022/12/03 16:10:00;;;;;;;25.73;7.53;;;;;;;3.56;96.96;100180.63;5052653;28;20021;-65
2022/12/03 16:12:27;;;;;;;24.27;7.70;;;;;;;3.54;97.25;100178.97;5051353;28;20043;-65
2022/12/03 16:14:52;;;;;;;20.65;7.18;;;;;;;3.53;97.92;100187.00;5052763;28;20083;-65
2022/12/03 16:17:17;;;;;;;26.95;7.47;;;;;;;3.54;96.64;100188.69;5052390;28;20036;-65
2022/12/03 16:19:43;;;;;;;21.65;7.85;;;;;;;3.50;97.54;100179.34;5051297;28;20041;-65
2022/12/03 16:22:08;;;;;;;16.00;6.97;;;;;;;3.48;98.66;100182.13;5050814;28;20033;-65
2022/12/03 16:24:34;;;;;;;17.55;7.63;;;;;;;3.47;97.44;100177.00;5051221;28;20041;-65
2022/12/03 16:26:59;;;;;;;18.52;7.65;;;;;;;3.46;98.12;100168.25;5052405;28;20048;-65
2022/12/03 16:29:24;;;;;;;25.48;9.27;;;;;;;3.49;97.64;100165.34;5051191;28;20470;-65
2022/12/03 16:31:50;;;;;;;20.02;7.10;;;;;;;3.54;98.30;100172.88;5050594;28;20033;-60
2022/12/03 16:34:15;;;;;;;21.83;7.20;;;;;;;3.57;98.88;100171.78;5052233;28;20382;-64
2022/12/03 16:36:41;;;;;;;29.17;9.05;;;;;;;3.46;97.96;100164.78;5052327;28;20032;-64
2022/12/03 16:39:06;;;;;;;16.33;6.72;;;;;;;3.51;97.58;100167.84;5052387;28;20398;-64
2022/12/03 16:41:32;;;;;;;17.42;8.70;;;;;;;3.42;98.10;100166.84;5052078;28;20120;-64
2022/12/03 16:43:57;;;;;;;21.33;7.22;;;;;;;3.37;98.78;100153.22;5052269;28;20041;-64
2022/12/03 16:46:25;;;;;;;19.52;7.30;;;;;;;3.36;98.83;100151.56;5052076;28;20417;-64
2022/12/03 16:48:54;;;;;;;26.20;8.07;;;;;;;3.35;98.84;100154.31;5052076;28;20052;-64
2022/12/03 16:51:20;;;;;;;21.58;7.43;;;;;;;3.42;99.27;100156.31;5051722;28;20035;-64
2022/12/03 16:53:46;;;;;;;26.80;8.95;;;;;;;3.44;99.44;100150.91;5050841;28;20047;-64